createdAt,value
2019-01-02T00:05:26.676Z,10.44
2019-01-02T00:25:36.181Z,11.51
2019-01-02T00:45:45.724Z,12.69
2019-01-02T01:05:55.398Z,12.72
2019-01-02T01:26:05.001Z,12.02
2019-01-02T01:46:14.562Z,18.95
2019-01-02T02:06:24.100Z,11.63
2019-01-02T02:26:35.876Z,17.00
2019-01-02T02:46:37.694Z,19.57
2019-01-02T03:06:37.203Z,16.30
2019-01-02T03:26:46.637Z,14.88
2019-01-02T03:46:58.442Z,14.29
2019-01-02T04:06:57.940Z,10.17
2019-01-02T04:27:07.551Z,10.33
2019-01-02T04:47:17.014Z,13.32
2019-01-02T05:07:26.497Z,22.45
2019-01-02T05:27:38.223Z,15.09
2019-01-02T05:47:37.764Z,16.83
2019-01-02T06:07:49.591Z,30.32
2019-01-02T06:27:49.225Z,16.73
2019-01-02T06:47:58.722Z,27.16
2019-01-02T07:08:08.237Z,18.80
2019-01-02T07:28:17.812Z,24.14
2019-01-02T07:48:27.405Z,14.88
2019-01-02T08:08:39.265Z,17.15
2019-01-02T08:28:38.803Z,19.39
2019-01-02T08:48:48.284Z,15.27
2019-01-02T09:09:00.122Z,17.85
2019-01-02T09:28:59.642Z,13.67
2019-01-02T09:49:09.156Z,14.84
2019-01-02T10:09:18.657Z,14.66
2019-01-02T10:29:33.108Z,19.14
2019-01-02T10:49:32.612Z,24.24
2019-01-02T11:09:44.596Z,17.40
2019-01-02T11:29:46.545Z,16.72
2019-01-02T11:49:46.174Z,17.32
2019-01-02T12:09:55.820Z,19.02
2019-01-02T12:30:05.156Z,30.73
2019-01-02T12:50:14.508Z,30.27
2019-01-02T13:10:26.276Z,18.64
2019-01-02T13:30:25.786Z,16.84
2019-01-02T13:50:35.274Z,10.38
2019-01-02T14:10:44.984Z,6.09
2019-01-02T14:30:54.889Z,7.74
2019-01-02T14:51:04.367Z,6.50
2019-01-02T15:11:14.085Z,8.39
2019-01-02T15:31:28.267Z,8.76
2019-01-02T15:51:27.809Z,10.05
2019-01-02T16:11:37.990Z,10.61
2019-01-02T16:31:38.597Z,5.55
2019-01-02T16:51:44.137Z,6.01
2019-01-02T17:11:43.780Z,4.03
2019-01-02T17:32:01.692Z,7.08
2019-01-02T17:52:08.502Z,5.67
2019-01-02T18:12:14.567Z,5.98
2019-01-02T18:52:28.000Z,5.57
2019-01-02T19:12:34.816Z,4.67
2019-01-02T19:32:41.862Z,4.32
2019-01-02T19:52:46.173Z,6.71
2019-01-02T20:12:45.821Z,5.62
2019-01-02T20:32:55.604Z,7.42
2019-01-02T20:53:05.103Z,8.25
2019-01-02T21:13:14.693Z,8.54
2019-01-02T21:33:24.011Z,9.11
2019-01-02T21:53:33.527Z,8.23
2019-01-02T22:13:43.021Z,8.00
2019-01-02T22:33:57.046Z,9.24
2019-01-02T22:53:56.656Z,6.41
2019-01-02T23:14:06.148Z,6.58
2019-01-02T23:34:15.593Z,6.84
2019-01-02T23:54:25.072Z,5.74
